»·PEaware :: N30346 KBFL-KMHV

N30346 :: KBFL-KMHV

FLIGHT INFORMATION

Flight Status: Arrived
Operator: Privately registered:
United States
More flights under this callsign
Pilot: Brad C. (33254)
Aircraft: CESSNA 177 CARDINAL
(C177)
More flights by this aircraft type
Origin: KBFL Meadows
United States
Destination: KMHV Mojave
United States
More flights between these airports :: More routes between these airports
Route: L71
File this flight plan on PilotEdge
Remarks:
Altitude:
(Current/Filed)
5,000ft
Speed:
(Current/Filed)
100kts
Departed: 07-Nov-23 03:04 PM
Arrived: 07-Nov-23 03:42 PM
Distance/Time
Traveled:
50nm/0:38
Distance/Time
To Go:
Arrived

Flight Plot

Page will automatically refresh every two minutes.

Flight plan parsing failed; only flown route is shown


Map Options




Map Legend


Flown Route
Filed Route
Departure Airport
Arrival Airport
Navaid (VOR, NDB)
Fix

Horizontal Profiles

Position Reports

Time Latitude Longitude Heading Altitude Ground
Speed
07-Nov-23 14:25 35.432881 -119.051888 36 496ft 0kts
07-Nov-23 14:26 35.432881 -119.051888 36 496ft 0kts
07-Nov-23 14:27 35.432882 -119.051888 36 496ft 0kts
07-Nov-23 14:28 35.432882 -119.051888 36 496ft 0kts
07-Nov-23 14:29 35.432882 -119.051888 36 496ft 0kts
07-Nov-23 14:30 35.432882 -119.051888 36 496ft 0kts
07-Nov-23 14:31 35.432882 -119.051888 36 496ft 0kts
07-Nov-23 14:32 35.432882 -119.051888 36 496ft 0kts
07-Nov-23 14:33 35.432882 -119.051888 36 496ft 0kts
07-Nov-23 14:34 35.432882 -119.051888 36 496ft 0kts
07-Nov-23 14:35 35.432882 -119.051888 36 496ft 0kts
07-Nov-23 14:36 35.432882 -119.051888 36 496ft 0kts
07-Nov-23 14:37 35.432882 -119.051888 36 496ft 0kts
07-Nov-23 14:38 35.432882 -119.051888 36 496ft 0kts
07-Nov-23 14:39 35.432882 -119.051888 36 496ft 0kts
07-Nov-23 14:40 35.432882 -119.051888 36 496ft 0kts
07-Nov-23 14:41 35.432882 -119.051888 36 496ft 0kts
07-Nov-23 14:42 35.432882 -119.051888 36 496ft 0kts
07-Nov-23 14:43 35.432882 -119.051888 36 496ft 0kts
07-Nov-23 14:44 35.432882 -119.051888 36 496ft 0kts
07-Nov-23 14:45 35.432882 -119.051888 36 496ft 0kts
07-Nov-23 14:46 35.432882 -119.051888 36 496ft 0kts
07-Nov-23 14:47 35.432882 -119.051888 36 496ft 0kts
07-Nov-23 14:48 35.432882 -119.051888 36 496ft 0kts
07-Nov-23 14:49 35.433190 -119.051659 218 499ft 0kts
07-Nov-23 14:50 35.433190 -119.051659 218 499ft 0kts
07-Nov-23 14:51 35.433190 -119.051659 218 499ft 0kts
07-Nov-23 14:52 35.433190 -119.051659 218 499ft 0kts
07-Nov-23 14:53 35.433190 -119.051659 218 499ft 0kts
07-Nov-23 14:54 35.433190 -119.051659 218 499ft 0kts
07-Nov-23 14:55 35.433190 -119.051659 218 499ft 0kts
07-Nov-23 14:56 35.433190 -119.051659 218 499ft 0kts
07-Nov-23 14:57 35.433093 -119.051744 213 498ft 7kts
07-Nov-23 14:58 35.429376 -119.048561 136 490ft 26kts
07-Nov-23 14:59 35.425986 -119.044778 176 481ft 0kts
07-Nov-23 15:00 35.425785 -119.044803 176 480ft 0kts
07-Nov-23 15:01 35.425760 -119.044817 247 480ft 0kts
07-Nov-23 15:02 35.425760 -119.044817 247 480ft 0kts
07-Nov-23 15:03 35.429825 -119.051331 315 483ft 85kts
07-Nov-23 15:04 35.445957 -119.068565 324 1213ft 70kts
07-Nov-23 15:05 35.463800 -119.066197 21 1789ft 72kts
07-Nov-23 15:06 35.473170 -119.051467 113 2296ft 78kts
07-Nov-23 15:07 35.465246 -119.023922 109 2714ft 92kts
07-Nov-23 15:09 35.455907 -118.993300 110 3121ft 97kts
07-Nov-23 15:10 35.446315 -118.962074 110 3521ft 97kts
07-Nov-23 15:11 35.436581 -118.930321 110 3924ft 101kts
07-Nov-23 15:12 35.426573 -118.897776 110 4325ft 102kts
07-Nov-23 15:13 35.416612 -118.865411 110 4722ft 100kts
07-Nov-23 15:14 35.406776 -118.833485 110 5121ft 99kts
07-Nov-23 15:15 35.397090 -118.802037 110 5519ft 97kts
07-Nov-23 15:16 35.387587 -118.771239 110 5916ft 96kts
07-Nov-23 15:17 35.378218 -118.740927 110 6314ft 94kts
07-Nov-23 15:18 35.369061 -118.711331 110 6710ft 91kts
07-Nov-23 15:19 35.360395 -118.683350 110 7071ft 88kts
07-Nov-23 15:20 35.350114 -118.650287 110 7057ft 112kts
07-Nov-23 15:21 35.339477 -118.616052 110 7368ft 96kts
07-Nov-23 15:22 35.331035 -118.588895 111 7831ft 76kts
07-Nov-23 15:23 35.322211 -118.560432 110 7927ft 104kts
07-Nov-23 15:24 35.311190 -118.525084 110 7938ft 115kts
07-Nov-23 15:25 35.299664 -118.488141 110 7939ft 116kts
07-Nov-23 15:26 35.288095 -118.451083 110 7939ft 117kts
07-Nov-23 15:27 35.276479 -118.413914 110 7939ft 117kts
07-Nov-23 15:28 35.264861 -118.376787 110 7939ft 117kts
07-Nov-23 15:29 35.253201 -118.339573 111 7939ft 117kts
07-Nov-23 15:30 35.240285 -118.303188 114 7939ft 117kts
07-Nov-23 15:31 35.225292 -118.269068 147 7928ft 107kts
07-Nov-23 15:32 35.202344 -118.253186 150 7900ft 84kts
07-Nov-23 15:33 35.184633 -118.240672 150 7792ft 75kts
07-Nov-23 15:34 35.166028 -118.227853 154 7902ft 76kts
07-Nov-23 15:34 35.150752 -118.215456 140 7779ft 88kts
07-Nov-23 15:35 35.134113 -118.194984 130 7508ft 82kts
07-Nov-23 15:37 35.110140 -118.175698 164 7022ft 93kts
07-Nov-23 15:38 35.085211 -118.164576 154 6103ft 134kts
07-Nov-23 15:39 35.054809 -118.154654 137 4284ft 96kts
07-Nov-23 15:39 35.054607 -118.132198 89 3586ft 71kts
07-Nov-23 15:40 35.059509 -118.130745 257 2895ft 78kts
07-Nov-23 15:41 35.059201 -118.147639 270 2745ft 34kts
07-Nov-23 15:43 35.057705 -118.149817 242 2745ft 15kts
07-Nov-23 15:43 35.057320 -118.152550 204 2751ft 0kts
07-Nov-23 15:44 35.057320 -118.152550 204 2751ft 0kts
07-Nov-23 15:45 35.057320 -118.152550 204 2751ft 0kts
07-Nov-23 15:46 35.057320 -118.152550 204 2751ft 0kts
07-Nov-23 15:47 35.057320 -118.152550 204 2751ft 0kts
07-Nov-23 15:48 35.057320 -118.152550 204 2751ft 0kts
07-Nov-23 15:49 35.057320 -118.152550 204 2751ft 0kts
07-Nov-23 15:50 35.057320 -118.152550 204 2751ft 0kts
07-Nov-23 15:51 35.057320 -118.152550 204 2751ft 0kts
07-Nov-23 15:52 35.057320 -118.152550 204 2751ft 0kts
07-Nov-23 15:53 35.057320 -118.152550 204 2751ft 0kts
07-Nov-23 15:54 35.057320 -118.152550 204 2751ft 0kts

Navigation Log

Ident Type
Flight plan parsing failed, navigation log unavailable